sensor_id;sensor_type;location;lat;lon;timestamp;P1;durP1;ratioP1;P2;durP2;ratioP2
10596;SDS011;5346;48.766;8.674;2022-12-10T00:01:47;298.80;;;43.67;;
10596;SDS011;5346;48.766;8.674;2022-12-10T00:04:23;663.80;;;54.83;;
10596;SDS011;5346;48.766;8.674;2022-12-10T00:06:50;322.70;;;42.90;;
10596;SDS011;5346;48.766;8.674;2022-12-10T00:09:18;377.37;;;48.63;;
10596;SDS011;5346;48.766;8.674;2022-12-10T00:11:59;257.60;;;40.87;;
10596;SDS011;5346;48.766;8.674;2022-12-10T00:14:27;549.03;;;53.33;;
10596;SDS011;5346;48.766;8.674;2022-12-10T00:17:01;233.50;;;42.43;;
10596;SDS011;5346;48.766;8.674;2022-12-10T00:19:28;483.57;;;48.23;;
10596;SDS011;5346;48.766;8.674;2022-12-10T00:21:55;336.37;;;43.90;;
10596;SDS011;5346;48.766;8.674;2022-12-10T00:24:29;348.93;;;43.40;;
10596;SDS011;5346;48.766;8.674;2022-12-10T00:26:56;347.23;;;48.17;;
10596;SDS011;5346;48.766;8.674;2022-12-10T00:29:23;408.73;;;47.50;;
10596;SDS011;5346;48.766;8.674;2022-12-10T00:31:57;137.23;;;38.20;;
10596;SDS011;5346;48.766;8.674;2022-12-10T00:34:24;270.90;;;43.70;;
10596;SDS011;5346;48.766;8.674;2022-12-10T00:36:51;216.63;;;40.37;;
10596;SDS011;5346;48.766;8.674;2022-12-10T00:39:24;291.13;;;48.17;;
10596;SDS011;5346;48.766;8.674;2022-12-10T00:41:51;116.53;;;36.80;;
10596;SDS011;5346;48.766;8.674;2022-12-10T00:44:18;282.23;;;44.07;;
10596;SDS011;5346;48.766;8.674;2022-12-10T00:46:52;143.93;;;40.50;;
10596;SDS011;5346;48.766;8.674;2022-12-10T00:49:19;124.93;;;40.73;;
10596;SDS011;5346;48.766;8.674;2022-12-10T00:51:50;105.67;;;38.00;;
10596;SDS011;5346;48.766;8.674;2022-12-10T00:54:23;100.67;;;37.43;;
10596;SDS011;5346;48.766;8.674;2022-12-10T00:56:50;81.17;;;35.17;;
10596;SDS011;5346;48.766;8.674;2022-12-10T00:59:17;86.93;;;36.80;;
10596;SDS011;5346;48.766;8.674;2022-12-10T01:01:50;100.97;;;36.10;;
10596;SDS011;5346;48.766;8.674;2022-12-10T01:04:17;84.20;;;36.37;;
10596;SDS011;5346;48.766;8.674;2022-12-10T01:06:46;116.87;;;39.60;;
10596;SDS011;5346;48.766;8.674;2022-12-10T01:09:26;82.70;;;33.87;;
10596;SDS011;5346;48.766;8.674;2022-12-10T01:11:56;96.17;;;37.73;;
10596;SDS011;5346;48.766;8.674;2022-12-10T01:14:36;78.47;;;33.93;;
10596;SDS011;5346;48.766;8.674;2022-12-10T01:17:03;83.67;;;34.17;;
10596;SDS011;5346;48.766;8.674;2022-12-10T01:19:32;82.87;;;34.67;;
10596;SDS011;5346;48.766;8.674;2022-12-10T01:22:06;107.47;;;36.60;;
10596;SDS011;5346;48.766;8.674;2022-12-10T01:24:33;101.27;;;36.37;;
10596;SDS011;5346;48.766;8.674;2022-12-10T01:27:01;84.13;;;34.97;;
10596;SDS011;5346;48.766;8.674;2022-12-10T01:29:35;132.20;;;37.17;;
10596;SDS011;5346;48.766;8.674;2022-12-10T01:32:02;183.40;;;38.33;;
10596;SDS011;5346;48.766;8.674;2022-12-10T01:34:30;79.60;;;34.70;;
10596;SDS011;5346;48.766;8.674;2022-12-10T01:37:03;162.60;;;38.17;;
10596;SDS011;5346;48.766;8.674;2022-12-10T01:39:30;127.03;;;38.03;;
10596;SDS011;5346;48.766;8.674;2022-12-10T01:41:58;110.13;;;38.03;;
10596;SDS011;5346;48.766;8.674;2022-12-10T01:47:09;104.53;;;35.37;;
10596;SDS011;5346;48.766;8.674;2022-12-10T01:49:43;178.77;;;39.00;;
10596;SDS011;5346;48.766;8.674;2022-12-10T01:52:23;115.40;;;34.73;;
10596;SDS011;5346;48.766;8.674;2022-12-10T01:54:57;274.33;;;43.60;;
10596;SDS011;5346;48.766;8.674;2022-12-10T01:57:25;164.03;;;40.20;;
10596;SDS011;5346;48.766;8.674;2022-12-10T01:59:58;135.63;;;38.07;;
10596;SDS011;5346;48.766;8.674;2022-12-10T02:02:42;236.27;;;42.77;;
10596;SDS011;5346;48.766;8.674;2022-12-10T02:05:25;367.77;;;47.47;;
10596;SDS011;5346;48.766;8.674;2022-12-10T02:14:04;337.77;;;41.07;;
10596;SDS011;5346;48.766;8.674;2022-12-10T02:17:00;397.50;;;46.03;;
10596;SDS011;5346;48.766;8.674;2022-12-10T02:22:25;139.33;;;39.93;;
10596;SDS011;5346;48.766;8.674;2022-12-10T02:25:04;150.10;;;38.67;;
10596;SDS011;5346;48.766;8.674;2022-12-10T02:27:51;137.23;;;39.47;;
10596;SDS011;5346;48.766;8.674;2022-12-10T02:30:53;87.53;;;37.60;;
10596;SDS011;5346;48.766;8.674;2022-12-10T02:33:23;99.70;;;36.90;;
10596;SDS011;5346;48.766;8.674;2022-12-10T02:36:07;217.63;;;41.00;;
10596;SDS011;5346;48.766;8.674;2022-12-10T02:38:37;119.67;;;37.30;;
10596;SDS011;5346;48.766;8.674;2022-12-10T02:41:22;82.37;;;37.30;;
10596;SDS011;5346;48.766;8.674;2022-12-10T02:44:05;96.37;;;36.37;;
10596;SDS011;5346;48.766;8.674;2022-12-10T02:46:37;85.47;;;36.43;;
10596;SDS011;5346;48.766;8.674;2022-12-10T02:49:13;88.63;;;36.87;;
10596;SDS011;5346;48.766;8.674;2022-12-10T02:51:49;78.40;;;35.73;;
10596;SDS011;5346;48.766;8.674;2022-12-10T02:57:53;85.53;;;35.77;;
10596;SDS011;5346;48.766;8.674;2022-12-10T03:00:18;82.43;;;34.70;;
10596;SDS011;5346;48.766;8.674;2022-12-10T03:08:38;79.07;;;34.03;;
10596;SDS011;5346;48.766;8.674;2022-12-10T03:11:21;80.10;;;33.80;;
10596;SDS011;5346;48.766;8.674;2022-12-10T03:16:36;80.40;;;36.27;;
10596;SDS011;5346;48.766;8.674;2022-12-10T03:19:40;73.23;;;34.00;;
10596;SDS011;5346;48.766;8.674;2022-12-10T03:22:20;69.47;;;34.03;;
10596;SDS011;5346;48.766;8.674;2022-12-10T03:24:47;69.13;;;34.77;;
10596;SDS011;5346;48.766;8.674;2022-12-10T03:27:15;74.53;;;34.00;;
10596;SDS011;5346;48.766;8.674;2022-12-10T03:29:54;75.83;;;36.17;;
10596;SDS011;5346;48.766;8.674;2022-12-10T03:32:24;71.87;;;33.17;;
10596;SDS011;5346;48.766;8.674;2022-12-10T03:35:00;68.60;;;33.43;;
10596;SDS011;5346;48.766;8.674;2022-12-10T03:37:28;70.43;;;33.30;;
10596;SDS011;5346;48.766;8.674;2022-12-10T03:39:56;76.07;;;33.97;;
10596;SDS011;5346;48.766;8.674;2022-12-10T03:42:34;65.47;;;32.87;;
10596;SDS011;5346;48.766;8.674;2022-12-10T03:45:03;67.87;;;33.23;;
10596;SDS011;5346;48.766;8.674;2022-12-10T03:47:31;78.37;;;35.47;;
10596;SDS011;5346;48.766;8.674;2022-12-10T03:50:05;73.20;;;33.73;;
10596;SDS011;5346;48.766;8.674;2022-12-10T03:52:45;85.47;;;34.20;;
10596;SDS011;5346;48.766;8.674;2022-12-10T03:55:19;76.00;;;34.23;;
10596;SDS011;5346;48.766;8.674;2022-12-10T03:57:46;62.13;;;31.87;;
10596;SDS011;5346;48.766;8.674;2022-12-10T04:00:14;65.40;;;32.60;;
10596;SDS011;5346;48.766;8.674;2022-12-10T04:02:48;72.77;;;33.30;;
10596;SDS011;5346;48.766;8.674;2022-12-10T04:05:15;80.57;;;35.03;;
10596;SDS011;5346;48.766;8.674;2022-12-10T04:07:43;65.37;;;33.10;;
10596;SDS011;5346;48.766;8.674;2022-12-10T04:10:16;77.33;;;33.97;;
10596;SDS011;5346;48.766;8.674;2022-12-10T04:12:43;68.20;;;31.80;;
10596;SDS011;5346;48.766;8.674;2022-12-10T04:15:38;66.00;;;32.13;;
10596;SDS011;5346;48.766;8.674;2022-12-10T04:18:24;67.33;;;31.90;;
10596;SDS011;5346;48.766;8.674;2022-12-10T04:20:57;64.57;;;31.17;;
10596;SDS011;5346;48.766;8.674;2022-12-10T04:23:42;60.17;;;31.30;;
10596;SDS011;5346;48.766;8.674;2022-12-10T04:26:34;64.10;;;32.13;;
10596;SDS011;5346;48.766;8.674;2022-12-10T04:29:20;69.87;;;33.80;;
10596;SDS011;5346;48.766;8.674;2022-12-10T04:31:56;66.97;;;31.67;;
10596;SDS011;5346;48.766;8.674;2022-12-10T04:34:25;64.50;;;31.43;;
10596;SDS011;5346;48.766;8.674;2022-12-10T04:36:52;64.17;;;30.53;;
10596;SDS011;5346;48.766;8.674;2022-12-10T04:39:26;66.13;;;30.60;;
10596;SDS011;5346;48.766;8.674;2022-12-10T04:41:53;63.77;;;30.93;;
10596;SDS011;5346;48.766;8.674;2022-12-10T04:44:20;55.63;;;30.23;;
10596;SDS011;5346;48.766;8.674;2022-12-10T04:46:54;60.73;;;29.60;;
10596;SDS011;5346;48.766;8.674;2022-12-10T04:49:22;61.07;;;30.23;;
10596;SDS011;5346;48.766;8.674;2022-12-10T04:51:50;62.83;;;30.70;;
10596;SDS011;5346;48.766;8.674;2022-12-10T04:54:25;65.37;;;30.27;;
10596;SDS011;5346;48.766;8.674;2022-12-10T04:56:52;57.17;;;30.03;;
10596;SDS011;5346;48.766;8.674;2022-12-10T04:59:20;61.30;;;32.47;;
10596;SDS011;5346;48.766;8.674;2022-12-10T05:01:54;58.37;;;29.77;;
10596;SDS011;5346;48.766;8.674;2022-12-10T05:04:21;60.73;;;29.97;;
10596;SDS011;5346;48.766;8.674;2022-12-10T05:06:48;63.70;;;30.37;;
10596;SDS011;5346;48.766;8.674;2022-12-10T05:09:22;69.47;;;30.37;;
10596;SDS011;5346;48.766;8.674;2022-12-10T05:11:49;62.67;;;30.33;;
10596;SDS011;5346;48.766;8.674;2022-12-10T05:14:16;61.57;;;30.00;;
10596;SDS011;5346;48.766;8.674;2022-12-10T05:16:50;57.07;;;29.37;;
10596;SDS011;5346;48.766;8.674;2022-12-10T05:19:18;65.87;;;30.57;;
10596;SDS011;5346;48.766;8.674;2022-12-10T05:21:46;65.77;;;31.23;;
10596;SDS011;5346;48.766;8.674;2022-12-10T05:24:38;66.37;;;30.70;;
10596;SDS011;5346;48.766;8.674;2022-12-10T05:27:05;68.17;;;32.13;;
10596;SDS011;5346;48.766;8.674;2022-12-10T05:29:33;62.87;;;31.47;;
10596;SDS011;5346;48.766;8.674;2022-12-10T05:32:07;63.20;;;30.73;;
10596;SDS011;5346;48.766;8.674;2022-12-10T05:34:34;68.30;;;31.43;;
10596;SDS011;5346;48.766;8.674;2022-12-10T05:37:01;61.10;;;31.00;;
10596;SDS011;5346;48.766;8.674;2022-12-10T05:39:35;67.97;;;30.60;;
10596;SDS011;5346;48.766;8.674;2022-12-10T05:42:02;61.20;;;29.27;;
10596;SDS011;5346;48.766;8.674;2022-12-10T05:44:29;66.00;;;32.63;;
10596;SDS011;5346;48.766;8.674;2022-12-10T05:47:03;65.07;;;30.50;;
10596;SDS011;5346;48.766;8.674;2022-12-10T05:49:30;63.70;;;31.23;;
10596;SDS011;5346;48.766;8.674;2022-12-10T05:51:59;61.57;;;31.10;;
10596;SDS011;5346;48.766;8.674;2022-12-10T05:54:33;59.27;;;28.87;;
10596;SDS011;5346;48.766;8.674;2022-12-10T05:57:07;61.03;;;28.77;;
10596;SDS011;5346;48.766;8.674;2022-12-10T05:59:41;59.20;;;29.93;;
10596;SDS011;5346;48.766;8.674;2022-12-10T06:02:10;61.27;;;30.43;;
10596;SDS011;5346;48.766;8.674;2022-12-10T06:04:37;55.87;;;28.17;;
10596;SDS011;5346;48.766;8.674;2022-12-10T06:07:11;55.70;;;28.07;;
10596;SDS011;5346;48.766;8.674;2022-12-10T06:09:38;56.37;;;29.40;;
10596;SDS011;5346;48.766;8.674;2022-12-10T06:12:05;62.57;;;29.17;;
10596;SDS011;5346;48.766;8.674;2022-12-10T06:14:39;64.97;;;30.73;;
10596;SDS011;5346;48.766;8.674;2022-12-10T06:17:06;58.03;;;27.90;;
10596;SDS011;5346;48.766;8.674;2022-12-10T06:19:33;66.73;;;30.00;;
10596;SDS011;5346;48.766;8.674;2022-12-10T06:22:07;58.17;;;29.27;;
10596;SDS011;5346;48.766;8.674;2022-12-10T06:24:34;93.97;;;33.23;;
10596;SDS011;5346;48.766;8.674;2022-12-10T06:27:01;57.67;;;29.90;;
10596;SDS011;5346;48.766;8.674;2022-12-10T06:29:35;59.77;;;28.70;;
10596;SDS011;5346;48.766;8.674;2022-12-10T06:32:02;60.37;;;30.50;;
10596;SDS011;5346;48.766;8.674;2022-12-10T06:34:30;72.90;;;29.87;;
10596;SDS011;5346;48.766;8.674;2022-12-10T06:37:08;71.47;;;30.83;;
10596;SDS011;5346;48.766;8.674;2022-12-10T06:39:35;71.17;;;32.63;;
10596;SDS011;5346;48.766;8.674;2022-12-10T06:42:02;67.07;;;33.07;;
10596;SDS011;5346;48.766;8.674;2022-12-10T06:44:36;63.23;;;29.67;;
10596;SDS011;5346;48.766;8.674;2022-12-10T06:47:03;85.47;;;32.23;;
10596;SDS011;5346;48.766;8.674;2022-12-10T06:49:30;124.40;;;31.43;;
10596;SDS011;5346;48.766;8.674;2022-12-10T06:52:12;73.90;;;33.47;;
10596;SDS011;5346;48.766;8.674;2022-12-10T06:54:53;71.60;;;31.47;;
10596;SDS011;5346;48.766;8.674;2022-12-10T06:57:28;74.13;;;32.67;;
10596;SDS011;5346;48.766;8.674;2022-12-10T06:59:55;72.47;;;32.00;;
10596;SDS011;5346;48.766;8.674;2022-12-10T07:02:23;61.67;;;31.03;;
10596;SDS011;5346;48.766;8.674;2022-12-10T07:04:57;57.07;;;30.53;;
10596;SDS011;5346;48.766;8.674;2022-12-10T07:07:25;62.50;;;30.10;;
10596;SDS011;5346;48.766;8.674;2022-12-10T07:09:52;63.17;;;30.73;;
10596;SDS011;5346;48.766;8.674;2022-12-10T07:12:26;60.10;;;30.73;;
10596;SDS011;5346;48.766;8.674;2022-12-10T07:14:54;56.67;;;29.87;;
10596;SDS011;5346;48.766;8.674;2022-12-10T07:17:21;62.07;;;31.07;;
10596;SDS011;5346;48.766;8.674;2022-12-10T07:19:54;62.17;;;30.90;;
10596;SDS011;5346;48.766;8.674;2022-12-10T07:22:21;70.37;;;31.27;;
10596;SDS011;5346;48.766;8.674;2022-12-10T07:24:48;58.40;;;31.23;;
10596;SDS011;5346;48.766;8.674;2022-12-10T07:27:23;63.40;;;31.70;;
10596;SDS011;5346;48.766;8.674;2022-12-10T07:29:51;65.77;;;32.40;;
10596;SDS011;5346;48.766;8.674;2022-12-10T07:32:18;62.93;;;31.60;;
10596;SDS011;5346;48.766;8.674;2022-12-10T07:34:52;58.83;;;30.30;;
10596;SDS011;5346;48.766;8.674;2022-12-10T07:37:19;53.40;;;29.37;;
10596;SDS011;5346;48.766;8.674;2022-12-10T07:39:46;60.77;;;31.60;;
10596;SDS011;5346;48.766;8.674;2022-12-10T07:42:20;62.33;;;30.97;;
10596;SDS011;5346;48.766;8.674;2022-12-10T07:44:47;65.70;;;31.37;;
10596;SDS011;5346;48.766;8.674;2022-12-10T07:47:15;67.47;;;31.33;;
10596;SDS011;5346;48.766;8.674;2022-12-10T07:49:49;71.77;;;30.20;;
10596;SDS011;5346;48.766;8.674;2022-12-10T07:52:23;64.67;;;31.33;;
10596;SDS011;5346;48.766;8.674;2022-12-10T07:54:56;58.97;;;31.10;;
10596;SDS011;5346;48.766;8.674;2022-12-10T07:57:23;64.70;;;32.20;;
10596;SDS011;5346;48.766;8.674;2022-12-10T07:59:50;57.93;;;29.87;;
10596;SDS011;5346;48.766;8.674;2022-12-10T08:02:24;54.57;;;28.90;;
10596;SDS011;5346;48.766;8.674;2022-12-10T08:04:51;59.33;;;30.30;;
10596;SDS011;5346;48.766;8.674;2022-12-10T08:07:18;55.37;;;29.50;;
10596;SDS011;5346;48.766;8.674;2022-12-10T08:09:52;61.17;;;30.80;;
10596;SDS011;5346;48.766;8.674;2022-12-10T08:12:19;57.97;;;29.50;;
10596;SDS011;5346;48.766;8.674;2022-12-10T08:14:46;52.97;;;28.97;;
10596;SDS011;5346;48.766;8.674;2022-12-10T08:17:20;51.27;;;28.80;;
10596;SDS011;5346;48.766;8.674;2022-12-10T08:19:47;51.53;;;27.53;;
10596;SDS011;5346;48.766;8.674;2022-12-10T08:22:15;55.53;;;27.57;;
10596;SDS011;5346;48.766;8.674;2022-12-10T08:24:49;49.50;;;27.93;;
10596;SDS011;5346;48.766;8.674;2022-12-10T08:27:16;47.20;;;27.00;;
10596;SDS011;5346;48.766;8.674;2022-12-10T08:29:43;47.47;;;27.23;;
10596;SDS011;5346;48.766;8.674;2022-12-10T08:32:17;48.67;;;26.53;;
10596;SDS011;5346;48.766;8.674;2022-12-10T08:34:44;47.50;;;26.67;;
10596;SDS011;5346;48.766;8.674;2022-12-10T08:37:11;48.60;;;26.53;;
10596;SDS011;5346;48.766;8.674;2022-12-10T08:39:45;45.20;;;25.53;;
10596;SDS011;5346;48.766;8.674;2022-12-10T08:42:12;43.93;;;25.43;;
10596;SDS011;5346;48.766;8.674;2022-12-10T08:44:40;42.80;;;24.03;;
10596;SDS011;5346;48.766;8.674;2022-12-10T08:47:13;42.80;;;23.67;;
10596;SDS011;5346;48.766;8.674;2022-12-10T08:49:40;39.00;;;22.60;;
10596;SDS011;5346;48.766;8.674;2022-12-10T08:52:07;42.27;;;23.50;;
10596;SDS011;5346;48.766;8.674;2022-12-10T08:54:42;40.90;;;23.47;;
10596;SDS011;5346;48.766;8.674;2022-12-10T08:57:15;37.10;;;22.77;;
10596;SDS011;5346;48.766;8.674;2022-12-10T08:59:50;36.97;;;21.83;;
10596;SDS011;5346;48.766;8.674;2022-12-10T09:02:17;39.13;;;23.27;;
10596;SDS011;5346;48.766;8.674;2022-12-10T09:04:44;39.57;;;23.13;;
10596;SDS011;5346;48.766;8.674;2022-12-10T09:07:19;39.77;;;21.87;;
10596;SDS011;5346;48.766;8.674;2022-12-10T09:09:46;40.33;;;23.30;;
10596;SDS011;5346;48.766;8.674;2022-12-10T09:12:13;37.73;;;22.57;;
10596;SDS011;5346;48.766;8.674;2022-12-10T09:14:47;37.93;;;22.40;;
10596;SDS011;5346;48.766;8.674;2022-12-10T09:17:14;37.00;;;22.83;;
10596;SDS011;5346;48.766;8.674;2022-12-10T09:19:41;36.37;;;21.30;;
10596;SDS011;5346;48.766;8.674;2022-12-10T09:22:15;35.77;;;22.57;;
10596;SDS011;5346;48.766;8.674;2022-12-10T09:24:42;40.77;;;22.60;;
10596;SDS011;5346;48.766;8.674;2022-12-10T09:27:09;36.50;;;22.13;;
10596;SDS011;5346;48.766;8.674;2022-12-10T09:29:43;36.53;;;21.23;;
10596;SDS011;5346;48.766;8.674;2022-12-10T09:32:10;33.87;;;21.30;;
10596;SDS011;5346;48.766;8.674;2022-12-10T09:34:37;33.37;;;19.93;;
10596;SDS011;5346;48.766;8.674;2022-12-10T09:37:11;33.63;;;19.83;;
10596;SDS011;5346;48.766;8.674;2022-12-10T09:39:38;32.43;;;20.77;;
10596;SDS011;5346;48.766;8.674;2022-12-10T09:51:22;40.10;;;21.07;;
10596;SDS011;5346;48.766;8.674;2022-12-10T09:57:31;32.90;;;18.87;;
10596;SDS011;5346;48.766;8.674;2022-12-10T10:00:15;32.10;;;20.03;;
10596;SDS011;5346;48.766;8.674;2022-12-10T10:03:02;29.30;;;19.90;;
10596;SDS011;5346;48.766;8.674;2022-12-10T10:05:31;35.40;;;21.60;;
10596;SDS011;5346;48.766;8.674;2022-12-10T10:08:29;35.33;;;19.67;;
10596;SDS011;5346;48.766;8.674;2022-12-10T10:11:20;30.30;;;18.93;;
10596;SDS011;5346;48.766;8.674;2022-12-10T10:14:05;31.27;;;19.77;;
10596;SDS011;5346;48.766;8.674;2022-12-10T10:16:49;31.23;;;19.00;;
10596;SDS011;5346;48.766;8.674;2022-12-10T10:19:31;32.30;;;19.03;;
10596;SDS011;5346;48.766;8.674;2022-12-10T10:22:03;28.60;;;18.40;;
10596;SDS011;5346;48.766;8.674;2022-12-10T10:24:42;29.47;;;19.00;;
10596;SDS011;5346;48.766;8.674;2022-12-10T10:27:13;28.47;;;18.27;;
10596;SDS011;5346;48.766;8.674;2022-12-10T10:29:54;28.77;;;19.47;;
10596;SDS011;5346;48.766;8.674;2022-12-10T10:32:25;26.10;;;16.40;;
10596;SDS011;5346;48.766;8.674;2022-12-10T10:35:17;27.37;;;17.63;;
10596;SDS011;5346;48.766;8.674;2022-12-10T10:38:26;27.70;;;17.90;;
10596;SDS011;5346;48.766;8.674;2022-12-10T10:41:02;24.83;;;16.17;;
10596;SDS011;5346;48.766;8.674;2022-12-10T10:43:32;28.30;;;17.00;;
10596;SDS011;5346;48.766;8.674;2022-12-10T10:46:17;27.13;;;16.10;;
10596;SDS011;5346;48.766;8.674;2022-12-10T10:48:49;24.00;;;16.23;;
10596;SDS011;5346;48.766;8.674;2022-12-10T10:51:20;23.30;;;15.50;;
10596;SDS011;5346;48.766;8.674;2022-12-10T10:53:58;23.93;;;16.23;;
10596;SDS011;5346;48.766;8.674;2022-12-10T10:56:32;26.03;;;15.80;;
10596;SDS011;5346;48.766;8.674;2022-12-10T11:01:57;23.27;;;15.43;;
10596;SDS011;5346;48.766;8.674;2022-12-10T11:04:54;22.87;;;14.17;;
10596;SDS011;5346;48.766;8.674;2022-12-10T11:07:32;24.97;;;16.23;;
10596;SDS011;5346;48.766;8.674;2022-12-10T11:12:53;22.03;;;14.53;;
10596;SDS011;5346;48.766;8.674;2022-12-10T11:15:40;22.67;;;14.97;;
10596;SDS011;5346;48.766;8.674;2022-12-10T11:18:24;22.33;;;14.80;;
10596;SDS011;5346;48.766;8.674;2022-12-10T11:21:15;22.87;;;15.07;;
10596;SDS011;5346;48.766;8.674;2022-12-10T11:23:49;23.03;;;13.33;;
10596;SDS011;5346;48.766;8.674;2022-12-10T11:26:33;18.80;;;13.73;;
10596;SDS011;5346;48.766;8.674;2022-12-10T11:30:11;20.93;;;14.10;;
10596;SDS011;5346;48.766;8.674;2022-12-10T11:38:23;22.00;;;13.83;;
10596;SDS011;5346;48.766;8.674;2022-12-10T11:41:05;24.37;;;15.27;;
10596;SDS011;5346;48.766;8.674;2022-12-10T11:46:50;20.70;;;14.17;;
10596;SDS011;5346;48.766;8.674;2022-12-10T11:50:14;21.33;;;13.30;;
10596;SDS011;5346;48.766;8.674;2022-12-10T11:56:34;20.40;;;13.40;;
10596;SDS011;5346;48.766;8.674;2022-12-10T12:05:17;24.10;;;14.60;;
10596;SDS011;5346;48.766;8.674;2022-12-10T12:11:34;25.50;;;15.57;;
10596;SDS011;5346;48.766;8.674;2022-12-10T12:14:29;25.57;;;15.13;;
10596;SDS011;5346;48.766;8.674;2022-12-10T12:20:02;25.17;;;14.93;;
10596;SDS011;5346;48.766;8.674;2022-12-10T12:26:02;22.37;;;14.53;;
10596;SDS011;5346;48.766;8.674;2022-12-10T12:29:05;21.23;;;14.00;;
10596;SDS011;5346;48.766;8.674;2022-12-10T12:32:08;24.90;;;15.23;;
10596;SDS011;5346;48.766;8.674;2022-12-10T12:35:03;24.50;;;15.27;;
10596;SDS011;5346;48.766;8.674;2022-12-10T12:38:03;27.60;;;16.30;;
10596;SDS011;5346;48.766;8.674;2022-12-10T12:41:23;26.17;;;15.63;;
10596;SDS011;5346;48.766;8.674;2022-12-10T12:50:43;23.50;;;15.17;;
10596;SDS011;5346;48.766;8.674;2022-12-10T12:54:11;24.93;;;15.73;;
10596;SDS011;5346;48.766;8.674;2022-12-10T12:56:50;25.80;;;16.03;;
10596;SDS011;5346;48.766;8.674;2022-12-10T13:05:28;22.47;;;14.67;;
10596;SDS011;5346;48.766;8.674;2022-12-10T13:11:00;24.07;;;15.03;;
10596;SDS011;5346;48.766;8.674;2022-12-10T13:32:46;21.30;;;13.47;;
10596;SDS011;5346;48.766;8.674;2022-12-10T13:35:58;22.27;;;13.53;;
10596;SDS011;5346;48.766;8.674;2022-12-10T13:38:39;22.07;;;14.00;;
10596;SDS011;5346;48.766;8.674;2022-12-10T13:41:33;19.97;;;12.83;;
10596;SDS011;5346;48.766;8.674;2022-12-10T13:44:48;25.80;;;16.47;;
10596;SDS011;5346;48.766;8.674;2022-12-10T13:47:45;33.40;;;20.40;;
10596;SDS011;5346;48.766;8.674;2022-12-10T13:50:43;23.30;;;14.50;;
10596;SDS011;5346;48.766;8.674;2022-12-10T13:56:39;27.53;;;14.20;;
10596;SDS011;5346;48.766;8.674;2022-12-10T13:59:44;24.83;;;14.13;;
10596;SDS011;5346;48.766;8.674;2022-12-10T14:05:42;22.73;;;14.50;;
10596;SDS011;5346;48.766;8.674;2022-12-10T14:08:33;28.23;;;16.53;;
10596;SDS011;5346;48.766;8.674;2022-12-10T14:11:13;23.80;;;15.27;;
10596;SDS011;5346;48.766;8.674;2022-12-10T14:14:04;22.83;;;14.67;;
10596;SDS011;5346;48.766;8.674;2022-12-10T14:16:46;24.87;;;14.37;;
10596;SDS011;5346;48.766;8.674;2022-12-10T14:19:14;21.50;;;14.43;;
10596;SDS011;5346;48.766;8.674;2022-12-10T14:21:43;26.50;;;16.23;;
10596;SDS011;5346;48.766;8.674;2022-12-10T14:24:26;22.00;;;14.57;;
10596;SDS011;5346;48.766;8.674;2022-12-10T14:27:00;23.47;;;14.47;;
10596;SDS011;5346;48.766;8.674;2022-12-10T14:29:50;26.97;;;16.03;;
10596;SDS011;5346;48.766;8.674;2022-12-10T14:32:34;21.00;;;13.07;;
10596;SDS011;5346;48.766;8.674;2022-12-10T14:35:22;23.87;;;14.23;;
10596;SDS011;5346;48.766;8.674;2022-12-10T14:37:52;22.47;;;13.80;;
10596;SDS011;5346;48.766;8.674;2022-12-10T14:40:38;22.83;;;13.63;;
10596;SDS011;5346;48.766;8.674;2022-12-10T14:43:09;22.30;;;14.23;;
10596;SDS011;5346;48.766;8.674;2022-12-10T14:45:54;21.00;;;13.47;;
10596;SDS011;5346;48.766;8.674;2022-12-10T14:48:26;20.33;;;13.97;;
10596;SDS011;5346;48.766;8.674;2022-12-10T14:51:03;20.43;;;12.50;;
10596;SDS011;5346;48.766;8.674;2022-12-10T14:53:47;21.23;;;13.30;;
10596;SDS011;5346;48.766;8.674;2022-12-10T14:56:31;19.40;;;12.20;;
10596;SDS011;5346;48.766;8.674;2022-12-10T14:59:09;20.53;;;12.70;;
10596;SDS011;5346;48.766;8.674;2022-12-10T15:01:50;19.70;;;12.60;;
10596;SDS011;5346;48.766;8.674;2022-12-10T15:04:24;22.10;;;13.17;;
10596;SDS011;5346;48.766;8.674;2022-12-10T15:07:14;21.27;;;13.23;;
10596;SDS011;5346;48.766;8.674;2022-12-10T15:09:47;20.13;;;13.27;;
10596;SDS011;5346;48.766;8.674;2022-12-10T15:12:33;21.13;;;13.10;;
10596;SDS011;5346;48.766;8.674;2022-12-10T15:15:33;19.27;;;12.90;;
10596;SDS011;5346;48.766;8.674;2022-12-10T15:18:15;20.23;;;13.30;;
10596;SDS011;5346;48.766;8.674;2022-12-10T15:20:47;19.50;;;13.23;;
10596;SDS011;5346;48.766;8.674;2022-12-10T15:28:35;21.03;;;13.63;;
10596;SDS011;5346;48.766;8.674;2022-12-10T15:31:12;24.53;;;13.87;;
10596;SDS011;5346;48.766;8.674;2022-12-10T15:34:06;24.40;;;15.17;;
10596;SDS011;5346;48.766;8.674;2022-12-10T15:36:42;22.43;;;14.57;;
10596;SDS011;5346;48.766;8.674;2022-12-10T15:39:27;22.60;;;13.17;;
10596;SDS011;5346;48.766;8.674;2022-12-10T15:42:30;21.80;;;14.23;;
10596;SDS011;5346;48.766;8.674;2022-12-10T15:45:22;22.33;;;13.60;;
10596;SDS011;5346;48.766;8.674;2022-12-10T15:47:54;33.90;;;20.13;;
10596;SDS011;5346;48.766;8.674;2022-12-10T15:50:38;30.37;;;18.37;;
10596;SDS011;5346;48.766;8.674;2022-12-10T15:53:11;24.90;;;15.93;;
10596;SDS011;5346;48.766;8.674;2022-12-10T15:56:01;23.33;;;14.87;;
10596;SDS011;5346;48.766;8.674;2022-12-10T15:58:29;24.40;;;15.10;;
10596;SDS011;5346;48.766;8.674;2022-12-10T16:01:03;25.87;;;16.80;;
10596;SDS011;5346;48.766;8.674;2022-12-10T16:03:30;24.27;;;14.93;;
10596;SDS011;5346;48.766;8.674;2022-12-10T16:05:59;20.40;;;13.77;;
10596;SDS011;5346;48.766;8.674;2022-12-10T16:08:33;20.50;;;13.90;;
10596;SDS011;5346;48.766;8.674;2022-12-10T16:14:05;22.13;;;13.37;;
10596;SDS011;5346;48.766;8.674;2022-12-10T16:16:33;19.17;;;12.77;;
10596;SDS011;5346;48.766;8.674;2022-12-10T16:19:00;23.90;;;14.77;;
10596;SDS011;5346;48.766;8.674;2022-12-10T16:21:33;19.93;;;12.67;;
10596;SDS011;5346;48.766;8.674;2022-12-10T16:24:00;21.53;;;13.50;;
10596;SDS011;5346;48.766;8.674;2022-12-10T16:26:27;22.57;;;14.93;;
10596;SDS011;5346;48.766;8.674;2022-12-10T16:29:01;21.27;;;13.40;;
10596;SDS011;5346;48.766;8.674;2022-12-10T16:31:28;20.63;;;13.57;;
10596;SDS011;5346;48.766;8.674;2022-12-10T16:33:56;22.43;;;13.60;;
10596;SDS011;5346;48.766;8.674;2022-12-10T16:36:29;23.77;;;14.60;;
10596;SDS011;5346;48.766;8.674;2022-12-10T16:38:57;24.40;;;15.00;;
10596;SDS011;5346;48.766;8.674;2022-12-10T16:41:24;20.33;;;13.47;;
10596;SDS011;5346;48.766;8.674;2022-12-10T16:43:57;25.07;;;15.70;;
10596;SDS011;5346;48.766;8.674;2022-12-10T16:46:25;23.27;;;16.17;;
10596;SDS011;5346;48.766;8.674;2022-12-10T16:48:52;22.03;;;14.23;;
10596;SDS011;5346;48.766;8.674;2022-12-10T16:51:26;23.10;;;14.90;;
10596;SDS011;5346;48.766;8.674;2022-12-10T16:54:16;23.83;;;14.83;;
10596;SDS011;5346;48.766;8.674;2022-12-10T16:56:50;26.17;;;15.23;;
10596;SDS011;5346;48.766;8.674;2022-12-10T16:59:17;24.73;;;15.60;;
10596;SDS011;5346;48.766;8.674;2022-12-10T17:01:44;24.17;;;14.43;;
10596;SDS011;5346;48.766;8.674;2022-12-10T17:04:18;26.00;;;14.80;;
10596;SDS011;5346;48.766;8.674;2022-12-10T17:06:45;23.70;;;14.23;;
10596;SDS011;5346;48.766;8.674;2022-12-10T17:09:12;26.17;;;15.53;;
10596;SDS011;5346;48.766;8.674;2022-12-10T17:11:46;21.80;;;13.10;;
10596;SDS011;5346;48.766;8.674;2022-12-10T17:14:29;23.00;;;13.77;;
10596;SDS011;5346;48.766;8.674;2022-12-10T17:17:15;24.13;;;14.57;;
10596;SDS011;5346;48.766;8.674;2022-12-10T17:19:42;21.97;;;14.40;;
10596;SDS011;5346;48.766;8.674;2022-12-10T17:22:11;19.20;;;12.70;;